sensor_id;sensor_type;location;lat;lon;timestamp;pressure;altitude;pressure_sealevel;temperature;humidity
62150;BME280;48134;53.586;10.610;2023-07-29T13:28:19;99840.44;;;22.96;100.00
62150;BME280;48134;53.586;10.610;2023-07-29T13:30:52;99844.91;;;23.11;100.00
62150;BME280;48134;53.586;10.610;2023-07-29T13:33:25;99836.44;;;22.89;100.00
62150;BME280;48134;53.586;10.610;2023-07-29T13:35:53;99845.44;;;22.75;100.00
62150;BME280;48134;53.586;10.610;2023-07-29T13:38:27;99846.59;;;22.71;100.00
62150;BME280;48134;53.586;10.610;2023-07-29T13:41:00;99850.44;;;22.59;100.00
62150;BME280;48134;53.586;10.610;2023-07-29T13:43:34;99853.44;;;22.05;100.00
62150;BME280;48134;53.586;10.610;2023-07-29T13:46:07;99853.09;;;22.45;100.00
62150;BME280;48134;53.586;10.610;2023-07-29T13:48:41;99849.16;;;22.98;100.00
62150;BME280;48134;53.586;10.610;2023-07-29T13:51:14;99854.63;;;22.87;100.00
62150;BME280;48134;53.586;10.610;2023-07-29T13:53:42;99862.50;;;22.81;100.00
62150;BME280;48134;53.586;10.610;2023-07-29T13:56:15;99857.59;;;22.60;100.00
62150;BME280;48134;53.586;10.610;2023-07-29T13:58:45;99855.63;;;22.64;100.00
62150;BME280;48134;53.586;10.610;2023-07-29T14:01:13;99862.13;;;22.83;100.00
62150;BME280;48134;53.586;10.610;2023-07-29T14:03:41;99861.66;;;22.73;100.00
62150;BME280;48134;53.586;10.610;2023-07-29T14:06:10;99860.41;;;22.67;100.00
62150;BME280;48134;53.586;10.610;2023-07-29T14:08:43;99859.19;;;22.65;100.00
62150;BME280;48134;53.586;10.610;2023-07-29T14:11:11;99856.19;;;22.36;100.00
62150;BME280;48134;53.586;10.610;2023-07-29T14:13:39;99856.41;;;22.23;100.00
62150;BME280;48134;53.586;10.610;2023-07-29T14:16:09;99867.00;;;22.18;100.00
62150;BME280;48134;53.586;10.610;2023-07-29T14:18:42;99865.50;;;22.24;100.00
62150;BME280;48134;53.586;10.610;2023-07-29T14:21:15;99867.56;;;22.31;100.00
62150;BME280;48134;53.586;10.610;2023-07-29T14:23:48;99859.19;;;22.61;100.00
62150;BME280;48134;53.586;10.610;2023-07-29T14:26:21;99858.88;;;22.32;100.00
62150;BME280;48134;53.586;10.610;2023-07-29T14:28:55;99855.59;;;22.61;100.00
62150;BME280;48134;53.586;10.610;2023-07-29T14:31:31;99859.19;;;22.65;100.00
62150;BME280;48134;53.586;10.610;2023-07-29T14:33:59;99866.13;;;22.85;100.00
62150;BME280;48134;53.586;10.610;2023-07-29T14:36:32;99864.69;;;23.02;100.00
62150;BME280;48134;53.586;10.610;2023-07-29T14:39:05;99864.78;;;23.13;100.00
62150;BME280;48134;53.586;10.610;2023-07-29T14:41:34;99870.63;;;23.04;100.00
62150;BME280;48134;53.586;10.610;2023-07-29T14:44:07;99873.00;;;23.02;100.00
62150;BME280;48134;53.586;10.610;2023-07-29T14:46:42;99869.47;;;22.61;100.00
62150;BME280;48134;53.586;10.610;2023-07-29T14:49:10;99868.13;;;22.44;100.00
62150;BME280;48134;53.586;10.610;2023-07-29T14:51:38;99862.78;;;22.65;100.00
62150;BME280;48134;53.586;10.610;2023-07-29T14:54:11;99850.63;;;22.81;100.00
62150;BME280;48134;53.586;10.610;2023-07-29T14:56:44;99859.53;;;22.56;100.00
62150;BME280;48134;53.586;10.610;2023-07-29T14:59:18;99846.38;;;22.46;100.00
62150;BME280;48134;53.586;10.610;2023-07-29T15:01:47;99851.25;;;22.63;100.00
62150;BME280;48134;53.586;10.610;2023-07-29T15:04:20;99853.44;;;22.84;100.00
62150;BME280;48134;53.586;10.610;2023-07-29T15:06:53;99851.22;;;23.04;100.00
62150;BME280;48134;53.586;10.610;2023-07-29T15:09:27;99841.72;;;23.05;100.00
62150;BME280;48134;53.586;10.610;2023-07-29T15:12:00;99850.81;;;23.06;100.00
62150;BME280;48134;53.586;10.610;2023-07-29T15:14:28;99852.78;;;23.02;100.00
62150;BME280;48134;53.586;10.610;2023-07-29T15:17:03;99855.97;;;23.07;100.00
62150;BME280;48134;53.586;10.610;2023-07-29T15:19:31;99863.91;;;23.05;100.00
62150;BME280;48134;53.586;10.610;2023-07-29T15:22:05;99861.28;;;22.75;100.00
62150;BME280;48134;53.586;10.610;2023-07-29T15:24:38;99865.78;;;22.46;100.00
62150;BME280;48134;53.586;10.610;2023-07-29T15:27:14;99857.69;;;22.71;100.00
62150;BME280;48134;53.586;10.610;2023-07-29T15:29:48;99859.75;;;22.81;100.00
62150;BME280;48134;53.586;10.610;2023-07-29T15:32:22;99870.94;;;22.51;100.00
62150;BME280;48134;53.586;10.610;2023-07-29T15:34:56;99875.44;;;22.25;100.00
62150;BME280;48134;53.586;10.610;2023-07-29T15:37:30;99872.78;;;22.02;100.00
62150;BME280;48134;53.586;10.610;2023-07-29T15:40:04;99873.09;;;21.93;100.00
62150;BME280;48134;53.586;10.610;2023-07-29T15:42:38;99876.03;;;21.77;100.00
62150;BME280;48134;53.586;10.610;2023-07-29T15:45:07;99879.94;;;21.72;100.00
62150;BME280;48134;53.586;10.610;2023-07-29T15:47:37;99878.47;;;21.82;100.00
62150;BME280;48134;53.586;10.610;2023-07-29T15:50:06;99878.06;;;21.80;100.00
62150;BME280;48134;53.586;10.610;2023-07-29T15:52:34;99878.09;;;22.18;100.00
62150;BME280;48134;53.586;10.610;2023-07-29T15:55:02;99869.72;;;22.45;100.00
62150;BME280;48134;53.586;10.610;2023-07-29T15:57:36;99861.91;;;22.54;100.00
62150;BME280;48134;53.586;10.610;2023-07-29T16:00:05;99878.25;;;22.66;100.00
62150;BME280;48134;53.586;10.610;2023-07-29T16:02:42;99882.50;;;22.56;100.00
62150;BME280;48134;53.586;10.610;2023-07-29T16:05:11;99882.75;;;22.44;100.00
62150;BME280;48134;53.586;10.610;2023-07-29T16:07:44;99877.75;;;22.57;100.00
62150;BME280;48134;53.586;10.610;2023-07-29T16:10:12;99874.22;;;22.60;100.00
62150;BME280;48134;53.586;10.610;2023-07-29T16:12:40;99868.44;;;22.76;100.00
62150;BME280;48134;53.586;10.610;2023-07-29T16:15:13;99860.97;;;22.84;100.00
62150;BME280;48134;53.586;10.610;2023-07-29T16:17:43;99869.84;;;23.07;100.00
62150;BME280;48134;53.586;10.610;2023-07-29T16:20:18;99870.78;;;23.19;100.00
62150;BME280;48134;53.586;10.610;2023-07-29T16:22:52;99868.84;;;23.26;100.00
62150;BME280;48134;53.586;10.610;2023-07-29T16:25:20;99873.97;;;23.21;100.00
62150;BME280;48134;53.586;10.610;2023-07-29T16:27:53;99888.66;;;23.25;100.00
62150;BME280;48134;53.586;10.610;2023-07-29T16:30:23;99890.50;;;23.10;100.00
62150;BME280;48134;53.586;10.610;2023-07-29T16:32:57;99890.22;;;23.19;100.00
62150;BME280;48134;53.586;10.610;2023-07-29T16:35:25;99894.28;;;23.36;100.00
62150;BME280;48134;53.586;10.610;2023-07-29T16:37:53;99896.84;;;22.66;100.00
62150;BME280;48134;53.586;10.610;2023-07-29T16:40:22;99901.75;;;22.42;100.00
62150;BME280;48134;53.586;10.610;2023-07-29T16:42:50;99900.78;;;21.93;100.00
62150;BME280;48134;53.586;10.610;2023-07-29T16:45:24;99907.72;;;21.53;100.00
62150;BME280;48134;53.586;10.610;2023-07-29T16:47:58;99907.97;;;21.44;100.00
62150;BME280;48134;53.586;10.610;2023-07-29T16:50:31;99899.56;;;21.37;100.00
62150;BME280;48134;53.586;10.610;2023-07-29T16:53:01;99900.47;;;21.18;100.00
62150;BME280;48134;53.586;10.610;2023-07-29T16:55:34;99899.25;;;21.15;100.00
62150;BME280;48134;53.586;10.610;2023-07-29T16:58:08;99905.28;;;20.98;100.00
62150;BME280;48134;53.586;10.610;2023-07-29T17:00:41;99921.34;;;20.88;100.00
62150;BME280;48134;53.586;10.610;2023-07-29T17:03:15;99917.50;;;20.73;100.00
62150;BME280;48134;53.586;10.610;2023-07-29T17:05:45;99918.88;;;20.83;100.00
62150;BME280;48134;53.586;10.610;2023-07-29T17:08:18;99908.19;;;20.82;100.00
62150;BME280;48134;53.586;10.610;2023-07-29T17:10:46;99917.44;;;20.70;100.00
62150;BME280;48134;53.586;10.610;2023-07-29T17:13:19;99919.53;;;20.77;100.00
62150;BME280;48134;53.586;10.610;2023-07-29T17:15:53;99919.47;;;20.53;100.00
62150;BME280;48134;53.586;10.610;2023-07-29T17:18:28;99926.72;;;20.38;100.00
62150;BME280;48134;53.586;10.610;2023-07-29T17:20:56;99937.09;;;20.26;100.00
62150;BME280;48134;53.586;10.610;2023-07-29T17:23:30;99950.69;;;20.15;100.00
62150;BME280;48134;53.586;10.610;2023-07-29T17:25:58;99959.97;;;19.87;100.00
62150;BME280;48134;53.586;10.610;2023-07-29T17:28:31;99975.84;;;19.58;100.00
62150;BME280;48134;53.586;10.610;2023-07-29T17:31:04;99982.28;;;19.14;100.00
62150;BME280;48134;53.586;10.610;2023-07-29T17:33:34;99973.19;;;18.69;100.00
62150;BME280;48134;53.586;10.610;2023-07-29T17:36:02;99979.13;;;18.27;100.00
62150;BME280;48134;53.586;10.610;2023-07-29T17:38:35;99976.53;;;17.94;100.00
62150;BME280;48134;53.586;10.610;2023-07-29T17:41:08;99979.63;;;17.80;100.00
62150;BME280;48134;53.586;10.610;2023-07-29T17:43:41;99971.38;;;17.67;100.00
62150;BME280;48134;53.586;10.610;2023-07-29T17:46:11;99971.06;;;17.57;100.00
62150;BME280;48134;53.586;10.610;2023-07-29T17:48:41;99973.13;;;17.60;100.00
62150;BME280;48134;53.586;10.610;2023-07-29T17:51:10;99971.38;;;17.55;100.00
62150;BME280;48134;53.586;10.610;2023-07-29T17:53:38;99971.63;;;17.38;100.00
62150;BME280;48134;53.586;10.610;2023-07-29T17:56:12;99967.84;;;17.42;100.00
62150;BME280;48134;53.586;10.610;2023-07-29T17:58:45;99970.03;;;17.49;100.00
62150;BME280;48134;53.586;10.610;2023-07-29T18:01:13;99961.00;;;17.48;100.00
62150;BME280;48134;53.586;10.610;2023-07-29T18:03:48;99968.63;;;17.55;100.00
62150;BME280;48134;53.586;10.610;2023-07-29T18:06:16;99970.81;;;17.37;100.00
62150;BME280;48134;53.586;10.610;2023-07-29T18:08:50;99970.50;;;17.26;100.00
62150;BME280;48134;53.586;10.610;2023-07-29T18:11:23;99969.81;;;17.29;100.00
62150;BME280;48134;53.586;10.610;2023-07-29T18:13:56;99969.31;;;17.27;100.00
62150;BME280;48134;53.586;10.610;2023-07-29T18:16:29;99972.66;;;17.33;100.00
62150;BME280;48134;53.586;10.610;2023-07-29T18:18:59;99964.31;;;17.29;100.00
62150;BME280;48134;53.586;10.610;2023-07-29T18:21:32;99973.69;;;17.28;100.00
62150;BME280;48134;53.586;10.610;2023-07-29T18:24:01;99972.97;;;17.19;100.00
62150;BME280;48134;53.586;10.610;2023-07-29T18:26:34;99971.38;;;17.06;100.00
62150;BME280;48134;53.586;10.610;2023-07-29T18:29:07;99986.59;;;17.03;100.00
62150;BME280;48134;53.586;10.610;2023-07-29T18:31:40;99987.06;;;17.05;100.00
62150;BME280;48134;53.586;10.610;2023-07-29T18:34:15;100008.50;;;17.12;100.00
62150;BME280;48134;53.586;10.610;2023-07-29T18:36:48;100009.75;;;17.14;100.00
62150;BME280;48134;53.586;10.610;2023-07-29T18:39:16;100018.59;;;17.20;100.00
62150;BME280;48134;53.586;10.610;2023-07-29T18:41:49;100017.09;;;17.23;100.00
62150;BME280;48134;53.586;10.610;2023-07-29T18:44:17;100013.31;;;17.15;100.00
62150;BME280;48134;53.586;10.610;2023-07-29T18:46:50;100022.03;;;17.17;100.00
62150;BME280;48134;53.586;10.610;2023-07-29T18:49:25;100019.16;;;17.13;100.00
62150;BME280;48134;53.586;10.610;2023-07-29T18:51:58;100024.88;;;17.21;100.00
62150;BME280;48134;53.586;10.610;2023-07-29T18:54:31;100021.44;;;17.11;100.00
62150;BME280;48134;53.586;10.610;2023-07-29T18:57:06;100023.28;;;17.07;100.00
62150;BME280;48134;53.586;10.610;2023-07-29T18:59:40;100022.78;;;17.05;100.00
62150;BME280;48134;53.586;10.610;2023-07-29T19:02:13;100021.06;;;17.00;100.00
62150;BME280;48134;53.586;10.610;2023-07-29T19:04:48;100030.59;;;17.03;100.00
62150;BME280;48134;53.586;10.610;2023-07-29T19:07:21;100018.88;;;16.94;100.00
62150;BME280;48134;53.586;10.610;2023-07-29T19:09:57;100011.69;;;17.02;100.00
62150;BME280;48134;53.586;10.610;2023-07-29T19:12:30;100009.69;;;16.90;100.00
62150;BME280;48134;53.586;10.610;2023-07-29T19:15:05;100018.53;;;16.95;100.00
62150;BME280;48134;53.586;10.610;2023-07-29T19:17:38;100023.13;;;17.04;100.00
62150;BME280;48134;53.586;10.610;2023-07-29T19:20:13;100020.03;;;17.05;100.00
62150;BME280;48134;53.586;10.610;2023-07-29T19:22:46;100018.22;;;17.09;100.00
62150;BME280;48134;53.586;10.610;2023-07-29T19:25:19;100028.75;;;17.07;100.00
62150;BME280;48134;53.586;10.610;2023-07-29T19:27:47;100031.97;;;17.09;100.00
62150;BME280;48134;53.586;10.610;2023-07-29T19:30:21;100026.81;;;17.08;100.00
62150;BME280;48134;53.586;10.610;2023-07-29T19:32:49;100031.72;;;17.02;100.00
62150;BME280;48134;53.586;10.610;2023-07-29T19:35:25;100034.94;;;17.04;100.00
62150;BME280;48134;53.586;10.610;2023-07-29T19:37:59;100031.38;;;17.04;100.00
62150;BME280;48134;53.586;10.610;2023-07-29T19:40:33;100026.69;;;17.04;100.00
62150;BME280;48134;53.586;10.610;2023-07-29T19:43:06;100022.41;;;16.94;100.00
62150;BME280;48134;53.586;10.610;2023-07-29T19:45:35;100021.41;;;16.99;100.00
62150;BME280;48134;53.586;10.610;2023-07-29T19:48:08;100022.09;;;16.96;100.00
62150;BME280;48134;53.586;10.610;2023-07-29T19:50:44;100031.69;;;16.90;100.00
62150;BME280;48134;53.586;10.610;2023-07-29T19:53:17;100036.56;;;16.84;100.00
62150;BME280;48134;53.586;10.610;2023-07-29T19:55:51;100038.03;;;16.81;100.00
62150;BME280;48134;53.586;10.610;2023-07-29T19:58:19;100036.16;;;16.73;100.00
62150;BME280;48134;53.586;10.610;2023-07-29T20:00:48;100046.22;;;16.69;100.00
62150;BME280;48134;53.586;10.610;2023-07-29T20:03:22;100043.91;;;16.59;100.00
62150;BME280;48134;53.586;10.610;2023-07-29T20:05:56;100046.75;;;16.62;100.00
62150;BME280;48134;53.586;10.610;2023-07-29T20:08:31;100049.78;;;16.48;100.00
62150;BME280;48134;53.586;10.610;2023-07-29T20:11:04;100044.88;;;16.54;100.00
62150;BME280;48134;53.586;10.610;2023-07-29T20:13:38;100045.13;;;16.49;100.00
62150;BME280;48134;53.586;10.610;2023-07-29T20:16:11;100046.59;;;16.46;100.00
62150;BME280;48134;53.586;10.610;2023-07-29T20:18:44;100049.25;;;16.34;100.00
62150;BME280;48134;53.586;10.610;2023-07-29T20:21:14;100040.84;;;16.39;100.00
62150;BME280;48134;53.586;10.610;2023-07-29T20:23:47;100043.56;;;16.39;100.00
62150;BME280;48134;53.586;10.610;2023-07-29T20:26:18;100047.31;;;16.35;100.00
62150;BME280;48134;53.586;10.610;2023-07-29T20:28:51;100042.34;;;16.28;100.00
62150;BME280;48134;53.586;10.610;2023-07-29T20:31:19;100039.66;;;16.19;100.00
62150;BME280;48134;53.586;10.610;2023-07-29T20:33:47;100039.81;;;16.23;100.00
62150;BME280;48134;53.586;10.610;2023-07-29T20:36:22;100039.81;;;16.23;100.00
62150;BME280;48134;53.586;10.610;2023-07-29T20:38:59;100032.72;;;16.22;100.00
62150;BME280;48134;53.586;10.610;2023-07-29T20:41:32;100040.75;;;16.27;100.00
62150;BME280;48134;53.586;10.610;2023-07-29T20:44:00;100036.66;;;16.12;100.00
62150;BME280;48134;53.586;10.610;2023-07-29T20:46:34;100033.75;;;16.08;100.00
62150;BME280;48134;53.586;10.610;2023-07-29T20:49:07;100033.56;;;15.92;100.00
62150;BME280;48134;53.586;10.610;2023-07-29T20:51:37;100033.56;;;15.92;100.00
62150;BME280;48134;53.586;10.610;2023-07-29T20:54:10;100035.97;;;15.94;100.00
62150;BME280;48134;53.586;10.610;2023-07-29T20:56:38;100049.34;;;15.95;100.00
62150;BME280;48134;53.586;10.610;2023-07-29T20:59:12;100045.50;;;15.88;100.00
62150;BME280;48134;53.586;10.610;2023-07-29T21:01:45;100044.19;;;15.94;100.00
62150;BME280;48134;53.586;10.610;2023-07-29T21:04:18;100053.41;;;15.89;100.00
62150;BME280;48134;53.586;10.610;2023-07-29T21:06:52;100044.75;;;15.78;100.00
62150;BME280;48134;53.586;10.610;2023-07-29T21:09:26;100042.34;;;15.68;100.00
62150;BME280;48134;53.586;10.610;2023-07-29T21:11:59;100043.44;;;15.76;100.00
62150;BME280;48134;53.586;10.610;2023-07-29T21:14:27;100049.28;;;15.65;100.00
62150;BME280;48134;53.586;10.610;2023-07-29T21:17:00;100059.28;;;15.70;100.00
62150;BME280;48134;53.586;10.610;2023-07-29T21:19:33;100050.97;;;15.58;100.00
62150;BME280;48134;53.586;10.610;2023-07-29T21:22:08;100053.03;;;15.61;100.00
62150;BME280;48134;53.586;10.610;2023-07-29T21:24:41;100053.50;;;15.63;100.00
62150;BME280;48134;53.586;10.610;2023-07-29T21:27:10;100057.06;;;15.55;100.00
62150;BME280;48134;53.586;10.610;2023-07-29T21:29:43;100042.72;;;15.58;100.00
62150;BME280;48134;53.586;10.610;2023-07-29T21:32:16;100054.31;;;15.63;100.00
62150;BME280;48134;53.586;10.610;2023-07-29T21:34:50;100053.22;;;15.56;100.00
62150;BME280;48134;53.586;10.610;2023-07-29T21:37:21;100055.78;;;15.61;100.00
62150;BME280;48134;53.586;10.610;2023-07-29T21:39:54;100049.34;;;15.57;100.00
62150;BME280;48134;53.586;10.610;2023-07-29T21:42:27;100044.28;;;15.68;100.00
62150;BME280;48134;53.586;10.610;2023-07-29T21:45:00;100043.53;;;15.58;100.00
62150;BME280;48134;53.586;10.610;2023-07-29T21:47:28;100044.53;;;15.54;100.00
62150;BME280;48134;53.586;10.610;2023-07-29T21:50:02;100051.09;;;15.61;100.00
62150;BME280;48134;53.586;10.610;2023-07-29T21:52:37;100047.56;;;15.61;100.00
62150;BME280;48134;53.586;10.610;2023-07-29T21:55:10;100051.13;;;15.53;100.00
62150;BME280;48134;53.586;10.610;2023-07-29T21:57:44;100044.53;;;15.54;100.00
62150;BME280;48134;53.586;10.610;2023-07-29T22:00:17;100044.38;;;15.50;100.00
62150;BME280;48134;53.586;10.610;2023-07-29T22:02:50;100050.50;;;15.47;100.00
62150;BME280;48134;53.586;10.610;2023-07-29T22:05:24;100052.59;;;15.50;100.00
62150;BME280;48134;53.586;10.610;2023-07-29T22:07:59;100047.91;;;15.51;100.00
62150;BME280;48134;53.586;10.610;2023-07-29T22:10:32;100052.91;;;15.48;100.00
62150;BME280;48134;53.586;10.610;2023-07-29T22:13:00;100050.34;;;15.43;100.00
62150;BME280;48134;53.586;10.610;2023-07-29T22:15:34;100059.41;;;15.44;100.00
62150;BME280;48134;53.586;10.610;2023-07-29T22:18:07;100053.94;;;15.35;100.00
62150;BME280;48134;53.586;10.610;2023-07-29T22:20:35;100054.75;;;15.36;100.00
62150;BME280;48134;53.586;10.610;2023-07-29T22:23:09;100051.34;;;15.30;100.00
62150;BME280;48134;53.586;10.610;2023-07-29T22:25:43;100060.91;;;15.24;100.00
62150;BME280;48134;53.586;10.610;2023-07-29T22:28:16;100060.09;;;15.23;100.00
62150;BME280;48134;53.586;10.610;2023-07-29T22:30:50;100060.09;;;15.23;100.00
62150;BME280;48134;53.586;10.610;2023-07-29T22:33:23;100065.25;;;15.25;100.00
62150;BME280;48134;53.586;10.610;2023-07-29T22:35:57;100063.16;;;15.22;100.00
62150;BME280;48134;53.586;10.610;2023-07-29T22:38:32;100068.81;;;15.17;100.00
62150;BME280;48134;53.586;10.610;2023-07-29T22:41:06;100068.97;;;15.11;100.00
62150;BME280;48134;53.586;10.610;2023-07-29T22:43:39;100073.66;;;15.20;100.00
62150;BME280;48134;53.586;10.610;2023-07-29T22:46:12;100063.31;;;15.25;100.00
62150;BME280;48134;53.586;10.610;2023-07-29T22:48:45;100062.97;;;15.27;100.00
62150;BME280;48134;53.586;10.610;2023-07-29T22:51:19;100060.09;;;15.23;100.00
62150;BME280;48134;53.586;10.610;2023-07-29T22:53:54;100051.06;;;15.32;100.00
62150;BME280;48134;53.586;10.610;2023-07-29T22:56:27;100049.25;;;15.36;100.00
62150;BME280;48134;53.586;10.610;2023-07-29T22:58:55;100047.16;;;15.33;100.00
62150;BME280;48134;53.586;10.610;2023-07-29T23:01:26;100062.97;;;15.27;100.00
62150;BME280;48134;53.586;10.610;2023-07-29T23:03:59;100059.28;;;15.23;100.00
62150;BME280;48134;53.586;10.610;2023-07-29T23:06:27;100054.63;;;15.23;100.00
62150;BME280;48134;53.586;10.610;2023-07-29T23:09:02;100061.34;;;15.26;100.00
62150;BME280;48134;53.586;10.610;2023-07-29T23:11:35;100063.63;;;15.24;100.00
62150;BME280;48134;53.586;10.610;2023-07-29T23:14:08;100073.31;;;15.21;100.00
62150;BME280;48134;53.586;10.610;2023-07-29T23:16:41;100074.44;;;15.20;100.00
62150;BME280;48134;53.586;10.610;2023-07-29T23:19:14;100067.53;;;15.14;100.00
62150;BME280;48134;53.586;10.610;2023-07-29T23:21:47;100068.00;;;15.16;100.00
62150;BME280;48134;53.586;10.610;2023-07-29T23:24:22;100073.66;;;15.11;100.00
62150;BME280;48134;53.586;10.610;2023-07-29T23:26:55;100051.56;;;15.16;100.00
62150;BME280;48134;53.586;10.610;2023-07-29T23:29:28;100052.69;;;15.15;100.00
62150;BME280;48134;53.586;10.610;2023-07-29T23:32:02;100057.38;;;15.06;100.00
62150;BME280;48134;53.586;10.610;2023-07-29T23:34:30;100057.22;;;15.11;100.00
62150;BME280;48134;53.586;10.610;2023-07-29T23:37:04;100061.25;;;15.13;100.00
62150;BME280;48134;53.586;10.610;2023-07-29T23:39:38;100058.34;;;15.10;100.00
62150;BME280;48134;53.586;10.610;2023-07-29T23:42:06;100049.13;;;15.14;100.00
62150;BME280;48134;53.586;10.610;2023-07-29T23:44:40;100047.06;;;15.11;100.00
62150;BME280;48134;53.586;10.610;2023-07-29T23:47:13;100045.44;;;15.10;100.00
62150;BME280;48134;53.586;10.610;2023-07-29T23:49:41;100049.81;;;15.11;100.00
62150;BME280;48134;53.586;10.610;2023-07-29T23:52:14;100036.25;;;15.06;100.00
62150;BME280;48134;53.586;10.610;2023-07-29T23:54:44;100037.88;;;15.07;100.00
62150;BME280;48134;53.586;10.610;2023-07-29T23:57:17;100045.31;;;14.98;100.00
62150;BME280;48134;53.586;10.610;2023-07-29T23:59:50;100041.28;;;14.95;100.00
